sensor_id;sensor_type;location;lat;lon;timestamp;temperature;humidity
74376;HTU21D;62812;55.188;61.302;2022-11-25T00:00:09;-8.67;72.83
74376;HTU21D;62812;55.188;61.302;2022-11-25T00:02:43;-8.60;71.74
74376;HTU21D;62812;55.188;61.302;2022-11-25T00:05:10;-8.40;72.17
74376;HTU21D;62812;55.188;61.302;2022-11-25T00:07:39;-8.22;70.25
74376;HTU21D;62812;55.188;61.302;2022-11-25T00:10:06;-8.16;70.58
74376;HTU21D;62812;55.188;61.302;2022-11-25T00:12:34;-8.12;69.27
74376;HTU21D;62812;55.188;61.302;2022-11-25T00:15:01;-8.49;69.74
74376;HTU21D;62812;55.188;61.302;2022-11-25T00:17:28;-8.69;70.73
74376;HTU21D;62812;55.188;61.302;2022-11-25T00:19:54;-8.68;70.86
74376;HTU21D;62812;55.188;61.302;2022-11-25T00:22:21;-8.65;71.59
74376;HTU21D;62812;55.188;61.302;2022-11-25T00:24:47;-8.50;70.58
74376;HTU21D;62812;55.188;61.302;2022-11-25T00:27:14;-8.60;70.28
74376;HTU21D;62812;55.188;61.302;2022-11-25T00:32:40;-8.89;71.03
74376;HTU21D;62812;55.188;61.302;2022-11-25T00:35:07;-8.77;71.57
74376;HTU21D;62812;55.188;61.302;2022-11-25T00:37:34;-8.62;70.61
74376;HTU21D;62812;55.188;61.302;2022-11-25T00:40:01;-8.51;70.24
74376;HTU21D;62812;55.188;61.302;2022-11-25T00:42:27;-8.31;70.25
74376;HTU21D;62812;55.188;61.302;2022-11-25T00:45:12;-8.22;68.90
74376;HTU21D;62812;55.188;61.302;2022-11-25T00:47:40;-8.19;66.52
74376;HTU21D;62812;55.188;61.302;2022-11-25T00:50:07;-8.09;68.78
74376;HTU21D;62812;55.188;61.302;2022-11-25T00:52:41;-8.22;68.23
74376;HTU21D;62812;55.188;61.302;2022-11-25T00:55:08;-8.09;68.48
74376;HTU21D;62812;55.188;61.302;2022-11-25T00:57:37;-8.08;67.06
74376;HTU21D;62812;55.188;61.302;2022-11-25T01:00:05;-8.00;67.55
74376;HTU21D;62812;55.188;61.302;2022-11-25T01:02:31;-8.29;65.56
74376;HTU21D;62812;55.188;61.302;2022-11-25T01:04:59;-8.46;66.40
74376;HTU21D;62812;55.188;61.302;2022-11-25T01:07:26;-8.35;66.91
74376;HTU21D;62812;55.188;61.302;2022-11-25T01:09:53;-8.69;67.08
74376;HTU21D;62812;55.188;61.302;2022-11-25T01:12:19;-8.78;68.52
74376;HTU21D;62812;55.188;61.302;2022-11-25T01:14:46;-8.81;67.78
74376;HTU21D;62812;55.188;61.302;2022-11-25T01:17:12;-8.86;68.10
74376;HTU21D;62812;55.188;61.302;2022-11-25T01:19:41;-8.83;67.67
74376;HTU21D;62812;55.188;61.302;2022-11-25T01:22:09;-8.78;67.90
74376;HTU21D;62812;55.188;61.302;2022-11-25T01:24:35;-8.77;67.97
74376;HTU21D;62812;55.188;61.302;2022-11-25T01:27:02;-8.83;68.07
74376;HTU21D;62812;55.188;61.302;2022-11-25T01:29:29;-8.78;68.92
74376;HTU21D;62812;55.188;61.302;2022-11-25T01:31:55;-8.90;68.67
74376;HTU21D;62812;55.188;61.302;2022-11-25T01:34:24;-8.89;68.72
74376;HTU21D;62812;55.188;61.302;2022-11-25T01:36:51;-8.84;68.60
74376;HTU21D;62812;55.188;61.302;2022-11-25T01:39:20;-8.85;67.46
74376;HTU21D;62812;55.188;61.302;2022-11-25T01:41:47;-8.88;68.23
74376;HTU21D;62812;55.188;61.302;2022-11-25T01:44:17;-8.75;66.62
74376;HTU21D;62812;55.188;61.302;2022-11-25T01:46:52;-8.92;67.23
74376;HTU21D;62812;55.188;61.302;2022-11-25T01:49:26;-8.96;67.41
74376;HTU21D;62812;55.188;61.302;2022-11-25T01:51:57;-8.95;67.40
74376;HTU21D;62812;55.188;61.302;2022-11-25T01:54:30;-9.03;69.39
74376;HTU21D;62812;55.188;61.302;2022-11-25T01:57:00;-8.81;67.98
74376;HTU21D;62812;55.188;61.302;2022-11-25T01:59:29;-8.75;66.48
74376;HTU21D;62812;55.188;61.302;2022-11-25T02:01:59;-8.77;67.18
74376;HTU21D;62812;55.188;61.302;2022-11-25T02:04:29;-8.94;66.74
74376;HTU21D;62812;55.188;61.302;2022-11-25T02:07:02;-8.84;67.65
74376;HTU21D;62812;55.188;61.302;2022-11-25T02:09:30;-8.72;65.05
74376;HTU21D;62812;55.188;61.302;2022-11-25T02:11:59;-8.70;67.65
74376;HTU21D;62812;55.188;61.302;2022-11-25T02:14:29;-8.84;66.08
74376;HTU21D;62812;55.188;61.302;2022-11-25T02:16:58;-8.75;67.26
74376;HTU21D;62812;55.188;61.302;2022-11-25T02:19:45;-8.56;65.22
74376;HTU21D;62812;55.188;61.302;2022-11-25T02:22:21;-8.74;65.27
74376;HTU21D;62812;55.188;61.302;2022-11-25T02:24:53;-8.74;67.26
74376;HTU21D;62812;55.188;61.302;2022-11-25T02:27:23;-8.89;65.53
74376;HTU21D;62812;55.188;61.302;2022-11-25T02:29:51;-9.13;65.79
74376;HTU21D;62812;55.188;61.302;2022-11-25T02:32:20;-9.17;66.49
74376;HTU21D;62812;55.188;61.302;2022-11-25T02:34:49;-9.27;66.93
74376;HTU21D;62812;55.188;61.302;2022-11-25T02:37:17;-9.34;67.36
74376;HTU21D;62812;55.188;61.302;2022-11-25T02:39:45;-9.43;68.31
74376;HTU21D;62812;55.188;61.302;2022-11-25T02:42:12;-9.23;65.89
74376;HTU21D;62812;55.188;61.302;2022-11-25T02:44:43;-8.99;66.62
74376;HTU21D;62812;55.188;61.302;2022-11-25T02:47:10;-8.78;67.76
74376;HTU21D;62812;55.188;61.302;2022-11-25T02:49:36;-8.78;65.30
74376;HTU21D;62812;55.188;61.302;2022-11-25T02:52:03;-8.63;63.79
74376;HTU21D;62812;55.188;61.302;2022-11-25T02:54:33;-8.66;63.05
74376;HTU21D;62812;55.188;61.302;2022-11-25T02:57:27;-8.31;63.91
74376;HTU21D;62812;55.188;61.302;2022-11-25T03:00:12;-8.23;62.05
74376;HTU21D;62812;55.188;61.302;2022-11-25T03:02:39;-8.23;61.41
74376;HTU21D;62812;55.188;61.302;2022-11-25T03:05:06;-8.64;59.07
74376;HTU21D;62812;55.188;61.302;2022-11-25T03:07:33;-8.75;62.34
74376;HTU21D;62812;55.188;61.302;2022-11-25T03:10:03;-8.79;63.60
74376;HTU21D;62812;55.188;61.302;2022-11-25T03:12:29;-9.08;61.86
74376;HTU21D;62812;55.188;61.302;2022-11-25T03:14:56;-9.05;63.10
74376;HTU21D;62812;55.188;61.302;2022-11-25T03:17:24;-9.03;63.37
74376;HTU21D;62812;55.188;61.302;2022-11-25T03:19:50;-9.15;61.48
74376;HTU21D;62812;55.188;61.302;2022-11-25T03:22:32;-9.29;63.71
74376;HTU21D;62812;55.188;61.302;2022-11-25T03:25:01;-9.44;62.65
74376;HTU21D;62812;55.188;61.302;2022-11-25T03:27:33;-9.40;62.62
74376;HTU21D;62812;55.188;61.302;2022-11-25T03:30:25;-9.42;64.34
74376;HTU21D;62812;55.188;61.302;2022-11-25T03:33:03;-9.34;65.35
74376;HTU21D;62812;55.188;61.302;2022-11-25T03:35:30;-9.41;61.71
74376;HTU21D;62812;55.188;61.302;2022-11-25T03:37:57;-9.60;61.41
74376;HTU21D;62812;55.188;61.302;2022-11-25T03:40:36;-9.58;65.21
74376;HTU21D;62812;55.188;61.302;2022-11-25T03:43:15;-9.58;61.82
74376;HTU21D;62812;55.188;61.302;2022-11-25T03:45:50;-9.34;62.41
74376;HTU21D;62812;55.188;61.302;2022-11-25T03:48:22;-9.31;60.55
74376;HTU21D;62812;55.188;61.302;2022-11-25T03:50:53;-9.32;60.09
74376;HTU21D;62812;55.188;61.302;2022-11-25T03:53:29;-9.33;62.86
74376;HTU21D;62812;55.188;61.302;2022-11-25T03:56:01;-8.94;61.47
74376;HTU21D;62812;55.188;61.302;2022-11-25T03:58:28;-8.73;61.53
74376;HTU21D;62812;55.188;61.302;2022-11-25T04:01:02;-8.46;61.34
74376;HTU21D;62812;55.188;61.302;2022-11-25T04:03:32;-8.48;60.52
74376;HTU21D;62812;55.188;61.302;2022-11-25T04:05:59;-8.44;57.11
74376;HTU21D;62812;55.188;61.302;2022-11-25T04:08:25;-8.35;59.16
74376;HTU21D;62812;55.188;61.302;2022-11-25T04:10:52;-8.22;59.90
74376;HTU21D;62812;55.188;61.302;2022-11-25T04:13:19;-8.38;59.19
74376;HTU21D;62812;55.188;61.302;2022-11-25T04:15:51;-8.46;58.44
74376;HTU21D;62812;55.188;61.302;2022-11-25T04:18:23;-8.51;58.58
74376;HTU21D;62812;55.188;61.302;2022-11-25T04:21:13;-8.92;57.18
74376;HTU21D;62812;55.188;61.302;2022-11-25T04:23:50;-9.29;58.21
74376;HTU21D;62812;55.188;61.302;2022-11-25T04:26:25;-9.42;59.79
74376;HTU21D;62812;55.188;61.302;2022-11-25T04:28:57;-9.01;59.70
74376;HTU21D;62812;55.188;61.302;2022-11-25T04:31:27;-9.09;57.58
74376;HTU21D;62812;55.188;61.302;2022-11-25T04:34:04;-9.10;57.11
74376;HTU21D;62812;55.188;61.302;2022-11-25T04:36:32;-9.08;60.33
74376;HTU21D;62812;55.188;61.302;2022-11-25T04:39:00;-9.28;58.29
74376;HTU21D;62812;55.188;61.302;2022-11-25T04:41:29;-9.29;59.73
74376;HTU21D;62812;55.188;61.302;2022-11-25T04:44:02;-9.10;60.54
74376;HTU21D;62812;55.188;61.302;2022-11-25T04:46:38;-9.02;58.06
74376;HTU21D;62812;55.188;61.302;2022-11-25T04:49:05;-9.41;56.35
74376;HTU21D;62812;55.188;61.302;2022-11-25T04:51:39;-9.61;59.07
74376;HTU21D;62812;55.188;61.302;2022-11-25T04:54:06;-9.31;60.51
74376;HTU21D;62812;55.188;61.302;2022-11-25T04:56:33;-9.43;56.90
74376;HTU21D;62812;55.188;61.302;2022-11-25T04:58:59;-9.87;57.28
74376;HTU21D;62812;55.188;61.302;2022-11-25T05:01:44;-10.17;58.48
74376;HTU21D;62812;55.188;61.302;2022-11-25T05:04:10;-10.42;59.19
74376;HTU21D;62812;55.188;61.302;2022-11-25T05:06:40;-10.57;60.20
74376;HTU21D;62812;55.188;61.302;2022-11-25T05:09:07;-10.46;61.00
74376;HTU21D;62812;55.188;61.302;2022-11-25T05:11:39;-10.63;59.98
74376;HTU21D;62812;55.188;61.302;2022-11-25T05:14:14;-10.62;59.15
74376;HTU21D;62812;55.188;61.302;2022-11-25T05:16:58;-10.42;63.30
74376;HTU21D;62812;55.188;61.302;2022-11-25T05:19:52;-10.48;59.67
74376;HTU21D;62812;55.188;61.302;2022-11-25T05:22:26;-10.61;60.86
74376;HTU21D;62812;55.188;61.302;2022-11-25T05:24:59;-10.52;59.96
74376;HTU21D;62812;55.188;61.302;2022-11-25T05:27:29;-10.34;60.52
74376;HTU21D;62812;55.188;61.302;2022-11-25T05:29:55;-10.15;60.41
74376;HTU21D;62812;55.188;61.302;2022-11-25T05:32:22;-10.18;58.16
74376;HTU21D;62812;55.188;61.302;2022-11-25T05:34:48;-10.43;58.25
74376;HTU21D;62812;55.188;61.302;2022-11-25T05:37:15;-10.34;59.31
74376;HTU21D;62812;55.188;61.302;2022-11-25T05:39:43;-10.34;59.86
74376;HTU21D;62812;55.188;61.302;2022-11-25T05:42:10;-10.47;59.90
74376;HTU21D;62812;55.188;61.302;2022-11-25T05:44:36;-10.52;57.94
74376;HTU21D;62812;55.188;61.302;2022-11-25T05:47:03;-10.60;58.29
74376;HTU21D;62812;55.188;61.302;2022-11-25T05:49:29;-10.63;59.80
74376;HTU21D;62812;55.188;61.302;2022-11-25T05:51:56;-10.65;59.01
74376;HTU21D;62812;55.188;61.302;2022-11-25T05:54:23;-10.48;60.88
74376;HTU21D;62812;55.188;61.302;2022-11-25T05:56:51;-10.41;58.75
74376;HTU21D;62812;55.188;61.302;2022-11-25T05:59:19;-10.37;59.82
74376;HTU21D;62812;55.188;61.302;2022-11-25T06:01:45;-10.19;60.74
74376;HTU21D;62812;55.188;61.302;2022-11-25T06:04:12;-10.16;58.63
74376;HTU21D;62812;55.188;61.302;2022-11-25T06:06:38;-9.84;56.77
74376;HTU21D;62812;55.188;61.302;2022-11-25T06:09:04;-9.91;56.50
74376;HTU21D;62812;55.188;61.302;2022-11-25T06:11:31;-10.07;59.44
74376;HTU21D;62812;55.188;61.302;2022-11-25T06:13:59;-9.92;56.15
74376;HTU21D;62812;55.188;61.302;2022-11-25T06:16:25;-10.08;55.04
74376;HTU21D;62812;55.188;61.302;2022-11-25T06:18:53;-10.19;58.19
74376;HTU21D;62812;55.188;61.302;2022-11-25T06:21:19;-10.20;56.32
74376;HTU21D;62812;55.188;61.302;2022-11-25T06:23:46;-10.44;53.52
74376;HTU21D;62812;55.188;61.302;2022-11-25T06:26:14;-10.38;59.48
74376;HTU21D;62812;55.188;61.302;2022-11-25T06:28:41;-10.41;55.33
74376;HTU21D;62812;55.188;61.302;2022-11-25T06:31:11;-10.51;54.14
74376;HTU21D;62812;55.188;61.302;2022-11-25T06:33:40;-10.41;59.22
74376;HTU21D;62812;55.188;61.302;2022-11-25T06:36:08;-10.15;55.95
74376;HTU21D;62812;55.188;61.302;2022-11-25T06:38:42;-10.23;54.78
74376;HTU21D;62812;55.188;61.302;2022-11-25T06:41:09;-10.22;55.00
74376;HTU21D;62812;55.188;61.302;2022-11-25T06:43:38;-10.35;54.45
74376;HTU21D;62812;55.188;61.302;2022-11-25T06:46:25;-10.56;53.94
74376;HTU21D;62812;55.188;61.302;2022-11-25T06:48:53;-10.61;56.39
74376;HTU21D;62812;55.188;61.302;2022-11-25T06:51:20;-10.94;53.12
74376;HTU21D;62812;55.188;61.302;2022-11-25T06:53:52;-11.29;54.69
74376;HTU21D;62812;55.188;61.302;2022-11-25T06:56:20;-11.42;58.22
74376;HTU21D;62812;55.188;61.302;2022-11-25T06:58:50;-11.30;58.53
74376;HTU21D;62812;55.188;61.302;2022-11-25T07:01:27;-11.12;55.50
74376;HTU21D;62812;55.188;61.302;2022-11-25T07:03:57;-11.37;52.92
74376;HTU21D;62812;55.188;61.302;2022-11-25T07:06:26;-11.50;58.30
74376;HTU21D;62812;55.188;61.302;2022-11-25T07:08:57;-11.40;58.48
74376;HTU21D;62812;55.188;61.302;2022-11-25T07:11:33;-11.25;54.55
74376;HTU21D;62812;55.188;61.302;2022-11-25T07:14:04;-11.41;57.91
74376;HTU21D;62812;55.188;61.302;2022-11-25T07:16:33;-11.80;55.47
74376;HTU21D;62812;55.188;61.302;2022-11-25T07:18:59;-12.01;55.27
74376;HTU21D;62812;55.188;61.302;2022-11-25T07:21:29;-12.09;55.94
74376;HTU21D;62812;55.188;61.302;2022-11-25T07:23:57;-12.19;57.96
74376;HTU21D;62812;55.188;61.302;2022-11-25T07:26:31;-12.20;56.44
74376;HTU21D;62812;55.188;61.302;2022-11-25T07:29:00;-12.22;56.27
74376;HTU21D;62812;55.188;61.302;2022-11-25T07:31:28;-12.24;57.29
74376;HTU21D;62812;55.188;61.302;2022-11-25T07:34:00;-12.20;57.06
74376;HTU21D;62812;55.188;61.302;2022-11-25T07:36:28;-12.11;57.39
74376;HTU21D;62812;55.188;61.302;2022-11-25T07:38:57;-12.01;58.02
74376;HTU21D;62812;55.188;61.302;2022-11-25T07:41:28;-12.03;56.43
74376;HTU21D;62812;55.188;61.302;2022-11-25T07:43:56;-12.13;56.66
74376;HTU21D;62812;55.188;61.302;2022-11-25T07:46:25;-11.96;59.48
74376;HTU21D;62812;55.188;61.302;2022-11-25T07:48:53;-12.05;56.18
74376;HTU21D;62812;55.188;61.302;2022-11-25T07:51:22;-11.90;59.06
74376;HTU21D;62812;55.188;61.302;2022-11-25T07:53:50;-11.93;55.49
74376;HTU21D;62812;55.188;61.302;2022-11-25T07:56:18;-12.05;54.72
74376;HTU21D;62812;55.188;61.302;2022-11-25T07:58:44;-12.03;56.19
74376;HTU21D;62812;55.188;61.302;2022-11-25T08:01:20;-11.98;57.78
74376;HTU21D;62812;55.188;61.302;2022-11-25T08:03:48;-11.80;56.48
74376;HTU21D;62812;55.188;61.302;2022-11-25T08:06:17;-11.61;58.06
74376;HTU21D;62812;55.188;61.302;2022-11-25T08:08:45;-11.62;53.13
74376;HTU21D;62812;55.188;61.302;2022-11-25T08:11:14;-11.56;53.98
74376;HTU21D;62812;55.188;61.302;2022-11-25T08:13:41;-11.67;53.62
74376;HTU21D;62812;55.188;61.302;2022-11-25T08:16:10;-11.67;54.64
74376;HTU21D;62812;55.188;61.302;2022-11-25T08:18:36;-11.79;53.84
74376;HTU21D;62812;55.188;61.302;2022-11-25T08:21:04;-11.60;56.92
74376;HTU21D;62812;55.188;61.302;2022-11-25T08:23:31;-11.62;53.47
74376;HTU21D;62812;55.188;61.302;2022-11-25T08:26:04;-11.42;56.72
74376;HTU21D;62812;55.188;61.302;2022-11-25T08:28:31;-11.42;53.40
74376;HTU21D;62812;55.188;61.302;2022-11-25T08:31:01;-11.24;57.08
74376;HTU21D;62812;55.188;61.302;2022-11-25T08:33:28;-11.24;53.03
74376;HTU21D;62812;55.188;61.302;2022-11-25T08:35:54;-11.14;55.49
74376;HTU21D;62812;55.188;61.302;2022-11-25T08:38:21;-11.27;52.59
74376;HTU21D;62812;55.188;61.302;2022-11-25T08:40:48;-11.29;55.09
74376;HTU21D;62812;55.188;61.302;2022-11-25T08:43:16;-11.33;54.38
74376;HTU21D;62812;55.188;61.302;2022-11-25T08:45:43;-11.37;53.18
74376;HTU21D;62812;55.188;61.302;2022-11-25T08:48:12;-11.26;54.26
74376;HTU21D;62812;55.188;61.302;2022-11-25T08:50:39;-11.33;53.17
74376;HTU21D;62812;55.188;61.302;2022-11-25T08:53:07;-11.35;55.47
74376;HTU21D;62812;55.188;61.302;2022-11-25T08:55:33;-11.25;54.69
74376;HTU21D;62812;55.188;61.302;2022-11-25T08:58:02;-11.12;54.98
74376;HTU21D;62812;55.188;61.302;2022-11-25T09:00:30;-11.06;53.76
74376;HTU21D;62812;55.188;61.302;2022-11-25T09:02:56;-10.96;54.52
74376;HTU21D;62812;55.188;61.302;2022-11-25T09:05:23;-10.74;55.49
74376;HTU21D;62812;55.188;61.302;2022-11-25T09:07:49;-10.82;51.53
74376;HTU21D;62812;55.188;61.302;2022-11-25T09:10:16;-10.89;51.32
74376;HTU21D;62812;55.188;61.302;2022-11-25T09:12:42;-11.03;52.69
74376;HTU21D;62812;55.188;61.302;2022-11-25T09:15:10;-11.11;52.53
74376;HTU21D;62812;55.188;61.302;2022-11-25T09:17:38;-11.22;52.54
74376;HTU21D;62812;55.188;61.302;2022-11-25T09:20:05;-11.37;52.48
74376;HTU21D;62812;55.188;61.302;2022-11-25T09:22:32;-11.42;52.94
74376;HTU21D;62812;55.188;61.302;2022-11-25T09:24:58;-11.59;53.19
74376;HTU21D;62812;55.188;61.302;2022-11-25T09:27:25;-11.68;53.50
74376;HTU21D;62812;55.188;61.302;2022-11-25T09:29:51;-11.81;53.71
74376;HTU21D;62812;55.188;61.302;2022-11-25T09:32:20;-11.91;54.28
74376;HTU21D;62812;55.188;61.302;2022-11-25T09:34:48;-11.96;54.37
74376;HTU21D;62812;55.188;61.302;2022-11-25T09:37:15;-11.90;55.03
74376;HTU21D;62812;55.188;61.302;2022-11-25T09:39:41;-11.83;54.93
74376;HTU21D;62812;55.188;61.302;2022-11-25T09:42:24;-11.62;58.25
74376;HTU21D;62812;55.188;61.302;2022-11-25T09:45:18;-11.29;54.82
74376;HTU21D;62812;55.188;61.302;2022-11-25T09:48:25;-11.35;52.16
74376;HTU21D;62812;55.188;61.302;2022-11-25T09:51:05;-11.49;52.93
74376;HTU21D;62812;55.188;61.302;2022-11-25T09:53:40;-11.41;54.42
74376;HTU21D;62812;55.188;61.302;2022-11-25T09:56:12;-11.47;52.84
74376;HTU21D;62812;55.188;61.302;2022-11-25T09:58:45;-11.54;53.43
74376;HTU21D;62812;55.188;61.302;2022-11-25T10:01:16;-11.60;53.04
74376;HTU21D;62812;55.188;61.302;2022-11-25T10:03:49;-11.53;53.63
74376;HTU21D;62812;55.188;61.302;2022-11-25T10:06:22;-11.60;53.04
74376;HTU21D;62812;55.188;61.302;2022-11-25T10:08:54;-11.52;54.28
74376;HTU21D;62812;55.188;61.302;2022-11-25T10:11:43;-11.65;52.72
74376;HTU21D;62812;55.188;61.302;2022-11-25T10:14:16;-11.74;53.60
74376;HTU21D;62812;55.188;61.302;2022-11-25T10:16:48;-11.67;54.94
74376;HTU21D;62812;55.188;61.302;2022-11-25T10:19:22;-11.56;56.13
74376;HTU21D;62812;55.188;61.302;2022-11-25T10:21:51;-11.52;53.84
74376;HTU21D;62812;55.188;61.302;2022-11-25T10:24:18;-11.51;53.07
74376;HTU21D;62812;55.188;61.302;2022-11-25T10:26:50;-11.51;53.87
74376;HTU21D;62812;55.188;61.302;2022-11-25T10:29:24;-11.44;56.83
74376;HTU21D;62812;55.188;61.302;2022-11-25T10:31:56;-11.67;52.01
74376;HTU21D;62812;55.188;61.302;2022-11-25T10:34:30;-11.91;52.36
74376;HTU21D;62812;55.188;61.302;2022-11-25T10:37:04;-11.97;53.46
74376;HTU21D;62812;55.188;61.302;2022-11-25T10:39:34;-11.85;54.69
74376;HTU21D;62812;55.188;61.302;2022-11-25T10:42:05;-11.74;52.59
74376;HTU21D;62812;55.188;61.302;2022-11-25T10:44:35;-11.67;54.26
74376;HTU21D;62812;55.188;61.302;2022-11-25T10:47:14;-11.49;55.80
74376;HTU21D;62812;55.188;61.302;2022-11-25T10:49:50;-11.51;53.14
74376;HTU21D;62812;55.188;61.302;2022-11-25T10:52:27;-11.40;52.28
74376;HTU21D;62812;55.188;61.302;2022-11-25T10:55:07;-11.51;51.64
74376;HTU21D;62812;55.188;61.302;2022-11-25T10:57:36;-11.69;51.69
74376;HTU21D;62812;55.188;61.302;2022-11-25T11:00:05;-11.63;55.17
74376;HTU21D;62812;55.188;61.302;2022-11-25T11:02:38;-11.54;54.40
74376;HTU21D;62812;55.188;61.302;2022-11-25T11:05:17;-11.41;54.23
74376;HTU21D;62812;55.188;61.302;2022-11-25T11:07:47;-11.18;53.68
74376;HTU21D;62812;55.188;61.302;2022-11-25T11:10:34;-11.32;50.62
74376;HTU21D;62812;55.188;61.302;2022-11-25T11:13:05;-11.45;51.08
74376;HTU21D;62812;55.188;61.302;2022-11-25T11:15:33;-11.61;52.40
74376;HTU21D;62812;55.188;61.302;2022-11-25T11:18:26;-11.74;51.66
74376;HTU21D;62812;55.188;61.302;2022-11-25T11:20:54;-11.84;51.68
74376;HTU21D;62812;55.188;61.302;2022-11-25T11:23:23;-11.86;54.27
74376;HTU21D;62812;55.188;61.302;2022-11-25T11:26:00;-11.95;53.83
74376;HTU21D;62812;55.188;61.302;2022-11-25T11:28:31;-11.94;53.31
74376;HTU21D;62812;55.188;61.302;2022-11-25T11:31:05;-11.98;52.33
74376;HTU21D;62812;55.188;61.302;2022-11-25T11:33:36;-11.97;53.20
74376;HTU21D;62812;55.188;61.302;2022-11-25T11:36:17;-12.01;54.08
74376;HTU21D;62812;55.188;61.302;2022-11-25T11:39:10;-11.99;53.71
74376;HTU21D;62812;55.188;61.302;2022-11-25T11:41:42;-11.79;54.36
74376;HTU21D;62812;55.188;61.302;2022-11-25T11:44:17;-11.83;52.22
74376;HTU21D;62812;55.188;61.302;2022-11-25T11:46:57;-11.86;52.79
74376;HTU21D;62812;55.188;61.302;2022-11-25T11:49:42;-11.96;52.15
74376;HTU21D;62812;55.188;61.302;2022-11-25T11:52:19;-12.12;51.92
74376;HTU21D;62812;55.188;61.302;2022-11-25T11:54:53;-12.43;52.05
74376;HTU21D;62812;55.188;61.302;2022-11-25T11:57:33;-12.66;53.39
74376;HTU21D;62812;55.188;61.302;2022-11-25T12:00:02;-12.74;54.71
74376;HTU21D;62812;55.188;61.302;2022-11-25T12:02:37;-12.62;56.85
74376;HTU21D;62812;55.188;61.302;2022-11-25T12:05:17;-12.56;53.84
74376;HTU21D;62812;55.188;61.302;2022-11-25T12:07:51;-12.41;53.65
74376;HTU21D;62812;55.188;61.302;2022-11-25T12:10:25;-12.27;55.38
74376;HTU21D;62812;55.188;61.302;2022-11-25T12:12:59;-12.21;51.98
74376;HTU21D;62812;55.188;61.302;2022-11-25T12:15:36;-12.26;51.64
74376;HTU21D;62812;55.188;61.302;2022-11-25T12:18:14;-12.48;52.56
74376;HTU21D;62812;55.188;61.302;2022-11-25T12:20:48;-12.65;52.59
74376;HTU21D;62812;55.188;61.302;2022-11-25T12:23:25;-12.66;53.33
74376;HTU21D;62812;55.188;61.302;2022-11-25T12:25:56;-12.73;52.30
74376;HTU21D;62812;55.188;61.302;2022-11-25T12:28:28;-12.83;53.17
74376;HTU21D;62812;55.188;61.302;2022-11-25T12:31:03;-12.82;54.34
74376;HTU21D;62812;55.188;61.302;2022-11-25T12:33:41;-12.79;54.26
74376;HTU21D;62812;55.188;61.302;2022-11-25T12:36:11;-12.63;53.14
74376;HTU21D;62812;55.188;61.302;2022-11-25T12:38:44;-12.56;55.62
74376;HTU21D;62812;55.188;61.302;2022-11-25T12:41:19;-12.51;53.31
74376;HTU21D;62812;55.188;61.302;2022-11-25T12:43:49;-12.63;53.61
74376;HTU21D;62812;55.188;61.302;2022-11-25T12:46:25;-12.64;53.39
74376;HTU21D;62812;55.188;61.302;2022-11-25T12:48:56;-12.73;54.01
74376;HTU21D;62812;55.188;61.302;2022-11-25T12:51:51;-12.91;52.69
74376;HTU21D;62812;55.188;61.302;2022-11-25T12:54:36;-13.09;53.66
74376;HTU21D;62812;55.188;61.302;2022-11-25T12:57:39;-13.28;54.91
74376;HTU21D;62812;55.188;61.302;2022-11-25T13:00:12;-13.41;54.37
74376;HTU21D;62812;55.188;61.302;2022-11-25T13:03:14;-13.48;56.10
74376;HTU21D;62812;55.188;61.302;2022-11-25T13:08:55;-13.32;54.78
74376;HTU21D;62812;55.188;61.302;2022-11-25T13:11:50;-13.46;54.73
74376;HTU21D;62812;55.188;61.302;2022-11-25T13:14:24;-13.53;55.21
74376;HTU21D;62812;55.188;61.302;2022-11-25T13:16:52;-13.62;55.72
74376;HTU21D;62812;55.188;61.302;2022-11-25T13:19:20;-13.76;56.07
74376;HTU21D;62812;55.188;61.302;2022-11-25T13:21:57;-13.86;56.52
74376;HTU21D;62812;55.188;61.302;2022-11-25T13:24:31;-13.93;56.91
74376;HTU21D;62812;55.188;61.302;2022-11-25T13:26:59;-14.00;57.10
74376;HTU21D;62812;55.188;61.302;2022-11-25T13:29:58;-14.04;57.11
74376;HTU21D;62812;55.188;61.302;2022-11-25T13:32:33;-14.13;57.42
74376;HTU21D;62812;55.188;61.302;2022-11-25T13:35:37;-14.19;58.33
74376;HTU21D;62812;55.188;61.302;2022-11-25T13:38:35;-14.22;58.76
74376;HTU21D;62812;55.188;61.302;2022-11-25T13:41:22;-14.22;58.22
74376;HTU21D;62812;55.188;61.302;2022-11-25T13:43:58;-14.21;58.93
74376;HTU21D;62812;55.188;61.302;2022-11-25T13:46:36;-14.21;58.16
74376;HTU21D;62812;55.188;61.302;2022-11-25T13:49:05;-14.19;58.33
74376;HTU21D;62812;55.188;61.302;2022-11-25T13:51:32;-14.18;58.51
74376;HTU21D;62812;55.188;61.302;2022-11-25T13:54:00;-14.19;58.16
74376;HTU21D;62812;55.188;61.302;2022-11-25T13:56:31;-14.18;58.07
74376;HTU21D;62812;55.188;61.302;2022-11-25T13:59:32;-14.18;58.02
74376;HTU21D;62812;55.188;61.302;2022-11-25T14:05:49;-14.10;57.99
74376;HTU21D;62812;55.188;61.302;2022-11-25T14:08:29;-14.12;58.20
74376;HTU21D;62812;55.188;61.302;2022-11-25T14:11:27;-14.05;57.71
74376;HTU21D;62812;55.188;61.302;2022-11-25T14:14:17;-14.04;57.67
74376;HTU21D;62812;55.188;61.302;2022-11-25T14:16:58;-14.03;58.00
74376;HTU21D;62812;55.188;61.302;2022-11-25T14:25:43;-14.03;58.26
74376;HTU21D;62812;55.188;61.302;2022-11-25T14:28:22;-14.11;57.52
74376;HTU21D;62812;55.188;61.302;2022-11-25T14:30:56;-14.14;57.90
74376;HTU21D;62812;55.188;61.302;2022-11-25T14:33:27;-14.19;57.91
74376;HTU21D;62812;55.188;61.302;2022-11-25T14:36:00;-14.26;58.17
74376;HTU21D;62812;55.188;61.302;2022-11-25T14:38:37;-14.23;59.09
74376;HTU21D;62812;55.188;61.302;2022-11-25T14:41:09;-14.23;59.09
74376;HTU21D;62812;55.188;61.302;2022-11-25T14:43:37;-14.22;59.38
74376;HTU21D;62812;55.188;61.302;2022-11-25T14:46:09;-14.23;58.71
74376;HTU21D;62812;55.188;61.302;2022-11-25T14:48:36;-14.26;59.00
74376;HTU21D;62812;55.188;61.302;2022-11-25T14:51:05;-14.27;59.27
74376;HTU21D;62812;55.188;61.302;2022-11-25T14:53:38;-14.29;59.93
74376;HTU21D;62812;55.188;61.302;2022-11-25T14:56:06;-14.26;59.09
74376;HTU21D;62812;55.188;61.302;2022-11-25T14:58:32;-14.20;58.90
74376;HTU21D;62812;55.188;61.302;2022-11-25T15:01:08;-14.16;58.91
74376;HTU21D;62812;55.188;61.302;2022-11-25T15:03:44;-14.12;58.75
74376;HTU21D;62812;55.188;61.302;2022-11-25T15:06:12;-14.08;58.49
74376;HTU21D;62812;55.188;61.302;2022-11-25T15:08:42;-14.08;58.21
74376;HTU21D;62812;55.188;61.302;2022-11-25T15:11:13;-14.05;58.21
74376;HTU21D;62812;55.188;61.302;2022-11-25T15:13:42;-13.91;58.01
74376;HTU21D;62812;55.188;61.302;2022-11-25T15:16:12;-13.85;57.84
74376;HTU21D;62812;55.188;61.302;2022-11-25T15:18:46;-13.81;57.55
74376;HTU21D;62812;55.188;61.302;2022-11-25T15:21:20;-13.80;57.98
74376;HTU21D;62812;55.188;61.302;2022-11-25T15:24:43;-13.76;57.34
74376;HTU21D;62812;55.188;61.302;2022-11-25T15:27:13;-13.74;58.35
74376;HTU21D;62812;55.188;61.302;2022-11-25T15:29:42;-13.77;57.39
74376;HTU21D;62812;55.188;61.302;2022-11-25T15:32:18;-13.87;57.71
74376;HTU21D;62812;55.188;61.302;2022-11-25T15:34:46;-13.93;58.16
74376;HTU21D;62812;55.188;61.302;2022-11-25T15:37:18;-13.97;57.88